Time;durP1;ratioP1;P1;durP2;ratioP2;P2;SDS_P1;SDS_P2;PMS_P1;PMS_P2;Temp;Humidity;BMP_temperature;BMP_pressure;BME280_temperature;BME280_humidity;BME280_pressure;Samples;Min_cycle;Max_cycle;Signal;HPM_P1;HPM_P2
2022/11/17 00:01:20;;;;;;;1999.90;999.90;;;8.40;99.90;;;;;;4990542;28;20450;-70
2022/11/17 00:03:49;;;;;;;1999.90;999.90;;;8.40;99.90;;;;;;4990360;28;20842;-69
2022/11/17 00:06:19;;;;;;;1999.90;999.90;;;8.50;99.90;;;;;;4990503;28;20808;-70
2022/11/17 00:08:46;;;;;;;1999.90;999.90;;;8.50;99.90;;;;;;4990537;28;20450;-67
2022/11/17 00:11:12;;;;;;;1999.90;999.90;;;8.50;99.90;;;;;;4988713;28;20486;-70
2022/11/17 00:16:24;;;;;;;1999.90;999.90;;;8.50;99.90;;;;;;4990257;28;20425;-69
2022/11/17 00:21:48;;;;;;;1999.90;999.90;;;8.50;99.90;;;;;;4948333;29;20429;-69
2022/11/17 00:24:16;;;;;;;1999.90;999.90;;;8.40;99.90;;;;;;4980389;28;20562;-69
2022/11/17 00:29:24;;;;;;;1999.90;999.90;;;8.40;99.90;;;;;;4990033;28;20817;-69
2022/11/17 00:34:41;;;;;;;1999.90;999.90;;;8.60;99.90;;;;;;4969561;28;20460;-68
2022/11/17 00:37:09;;;;;;;1999.90;999.90;;;8.70;99.90;;;;;;4990378;28;20561;-69
2022/11/17 00:39:36;;;;;;;1999.90;999.90;;;8.70;99.90;;;;;;4989696;28;20794;-69
2022/11/17 00:42:03;;;;;;;1999.90;999.90;;;8.70;99.90;;;;;;4989889;28;20439;-69
2022/11/17 00:44:30;;;;;;;1999.90;999.90;;;8.60;99.90;;;;;;4989478;28;20993;-69
2022/11/17 00:46:57;;;;;;;1999.90;999.90;;;8.60;99.90;;;;;;4989960;28;20461;-69
2022/11/17 00:49:25;;;;;;;1999.90;999.90;;;8.60;99.90;;;;;;4989906;28;20827;-71
2022/11/17 00:51:54;;;;;;;1999.90;999.90;;;8.60;99.90;;;;;;4989507;28;20581;-69
2022/11/17 00:54:21;;;;;;;1999.90;999.90;;;8.60;99.90;;;;;;4989977;28;21000;-70
2022/11/17 00:56:48;;;;;;;1999.90;999.90;;;8.60;99.90;;;;;;4985164;28;20454;-69
2022/11/17 00:59:15;;;;;;;1999.90;999.90;;;8.60;99.90;;;;;;4989462;28;20512;-70
2022/11/17 01:01:43;;;;;;;1999.90;999.90;;;8.60;99.90;;;;;;4989135;28;20447;-68
2022/11/17 01:04:10;;;;;;;1999.90;999.90;;;8.70;99.90;;;;;;4987069;28;20474;-70
2022/11/17 01:06:39;;;;;;;1999.90;999.90;;;8.70;99.90;;;;;;4987205;28;21155;-69
2022/11/17 01:09:12;;;;;;;1999.90;999.90;;;8.60;99.90;;;;;;4989806;28;20454;-68
2022/11/17 01:11:39;;;;;;;1999.90;999.90;;;8.70;99.90;;;;;;4989752;28;20478;-69
2022/11/17 01:14:05;;;;;;;1999.90;999.90;;;8.70;99.90;;;;;;4985861;28;20481;-70
2022/11/17 01:16:33;;;;;;;1999.90;999.90;;;8.70;99.90;;;;;;4981252;28;20451;-71
2022/11/17 01:19:01;;;;;;;1999.90;999.90;;;8.70;99.90;;;;;;4979772;28;21332;-70
2022/11/17 01:21:29;;;;;;;1999.90;999.90;;;8.70;99.90;;;;;;4982115;28;20485;-70
2022/11/17 01:23:58;;;;;;;1999.90;999.90;;;8.70;99.90;;;;;;4985448;28;20467;-69
2022/11/17 01:26:28;;;;;;;1999.90;999.90;;;8.70;99.90;;;;;;4987716;28;20438;-69
2022/11/17 01:28:55;;;;;;;1999.90;999.90;;;8.70;99.90;;;;;;4989614;28;20455;-71
2022/11/17 01:31:23;;;;;;;1999.90;999.90;;;8.70;99.90;;;;;;4990556;28;20485;-72
2022/11/17 01:33:50;;;;;;;1999.90;999.90;;;8.70;99.90;;;;;;4991507;28;20462;-72
2022/11/17 01:36:19;;;;;;;1999.90;999.90;;;8.70;99.90;;;;;;4989362;28;20449;-69
2022/11/17 01:38:46;;;;;;;1999.90;999.90;;;8.70;99.90;;;;;;4990721;28;20446;-68
2022/11/17 01:41:15;;;;;;;1999.90;999.90;;;8.70;99.90;;;;;;4973034;28;20451;-69
2022/11/17 01:43:45;;;;;;;1999.90;999.90;;;8.80;99.90;;;;;;4973630;28;20558;-69
2022/11/17 01:46:27;;;;;;;1999.90;999.90;;;8.80;99.90;;;;;;4973380;28;20458;-69
2022/11/17 01:48:58;;;;;;;1999.90;999.90;;;8.80;99.90;;;;;;4973622;28;20452;-69
2022/11/17 01:51:26;;;;;;;1999.90;999.90;;;8.80;99.90;;;;;;4991049;28;20501;-69
2022/11/17 01:53:53;;;;;;;1999.90;999.90;;;8.80;99.90;;;;;;4992192;28;20471;-70
2022/11/17 01:56:23;;;;;;;1999.90;999.90;;;8.80;99.90;;;;;;4992626;28;20949;-69
2022/11/17 01:58:57;;;;;;;1999.90;999.90;;;8.70;99.90;;;;;;4992255;28;20453;-68
2022/11/17 02:01:24;;;;;;;1999.90;999.90;;;8.70;99.90;;;;;;4992440;28;20442;-68
2022/11/17 02:03:51;;;;;;;1999.90;999.90;;;8.70;99.90;;;;;;4991674;28;20463;-69
2022/11/17 02:06:23;;;;;;;1999.90;999.90;;;8.70;99.90;;;;;;4992574;28;20446;-68
2022/11/17 02:08:52;;;;;;;1999.90;999.90;;;8.70;99.90;;;;;;4992256;28;20447;-70
2022/11/17 02:11:21;;;;;;;1999.90;999.90;;;8.80;99.90;;;;;;4991877;28;20471;-69
2022/11/17 02:13:50;;;;;;;1999.90;999.90;;;8.70;99.90;;;;;;4992303;28;20467;-70
2022/11/17 02:16:18;;;;;;;1999.90;999.90;;;8.70;99.90;;;;;;4991903;28;21264;-69
2022/11/17 02:18:47;;;;;;;1999.90;999.90;;;8.80;99.90;;;;;;4992404;28;20470;-68
2022/11/17 02:21:40;;;;;;;1999.90;999.90;;;8.80;99.90;;;;;;4992042;28;20466;-71
2022/11/17 02:24:31;;;;;;;1999.90;999.90;;;8.90;99.90;;;;;;4988049;28;20478;-69
2022/11/17 02:27:40;;;;;;;1999.90;999.90;;;8.90;99.90;;;;;;4991797;28;20450;-70
2022/11/17 02:30:10;;;;;;;1999.90;999.90;;;8.90;99.90;;;;;;4992446;28;20458;-68
2022/11/17 02:32:45;;;;;;;1999.90;999.90;;;8.80;99.90;;;;;;4990844;28;20505;-70
2022/11/17 02:35:19;;;;;;;1999.90;999.90;;;8.70;99.90;;;;;;4991717;28;20474;-69
2022/11/17 02:37:55;;;;;;;1999.90;999.90;;;8.70;99.90;;;;;;4991887;28;20449;-69
2022/11/17 02:40:29;;;;;;;1999.90;999.90;;;8.60;99.90;;;;;;4992054;28;20450;-69
2022/11/17 02:45:50;;;;;;;1999.90;999.90;;;8.30;99.90;;;;;;4991873;28;20426;-69
2022/11/17 02:48:22;;;;;;;1999.90;999.90;;;8.20;99.90;;;;;;4991802;28;20465;-70
2022/11/17 02:50:50;;;;;;;1999.90;999.90;;;8.20;99.90;;;;;;4991723;28;20450;-70
2022/11/17 02:53:19;;;;;;;1999.90;999.90;;;8.10;99.90;;;;;;4991785;28;20482;-68
2022/11/17 02:55:50;;;;;;;1999.90;999.90;;;8.00;99.90;;;;;;4991176;28;20495;-67
2022/11/17 02:58:18;;;;;;;1999.90;999.90;;;7.90;99.90;;;;;;4992168;28;20485;-69
2022/11/17 03:00:59;;;;;;;1999.90;999.90;;;7.90;99.90;;;;;;4991269;28;20450;-69
2022/11/17 03:03:37;;;;;;;1999.90;999.90;;;7.90;99.90;;;;;;4991533;28;20466;-69
2022/11/17 03:06:15;;;;;;;1999.90;999.90;;;8.00;99.90;;;;;;4990837;28;20533;-70
2022/11/17 03:08:52;;;;;;;1999.90;999.90;;;8.00;99.90;;;;;;4991552;28;20468;-68
2022/11/17 03:11:26;;;;;;;1999.90;999.90;;;8.00;99.90;;;;;;4990766;28;21207;-69
2022/11/17 03:14:01;;;;;;;1999.90;999.90;;;8.00;99.90;;;;;;4991252;28;20466;-68
2022/11/17 03:16:34;;;;;;;1999.90;999.90;;;8.10;99.90;;;;;;4991217;28;20446;-69
2022/11/17 03:19:08;;;;;;;1999.90;999.90;;;8.20;99.90;;;;;;4990873;28;20442;-69
2022/11/17 03:21:39;;;;;;;1999.90;999.90;;;8.30;99.90;;;;;;4991010;28;20451;-70
2022/11/17 03:24:11;;;;;;;1999.90;999.90;;;8.30;99.90;;;;;;4990551;28;20466;-68
2022/11/17 03:26:42;;;;;;;1999.90;999.90;;;8.40;99.90;;;;;;4991137;28;20446;-68
2022/11/17 03:29:14;;;;;;;1999.90;999.90;;;8.50;99.90;;;;;;4990614;28;20840;-70
2022/11/17 03:31:43;;;;;;;1999.90;999.90;;;8.50;99.90;;;;;;4990637;28;20478;-68
2022/11/17 03:34:15;;;;;;;1999.90;999.90;;;8.60;99.90;;;;;;4990436;28;20463;-68
2022/11/17 03:36:45;;;;;;;1999.90;999.90;;;8.70;99.90;;;;;;4991295;28;20819;-70
2022/11/17 03:39:20;;;;;;;1999.90;999.90;;;8.70;99.90;;;;;;4991129;28;20462;-69
2022/11/17 03:41:49;;;;;;;1999.90;999.90;;;8.70;99.90;;;;;;4990694;28;21035;-68
2022/11/17 03:44:19;;;;;;;1999.90;999.90;;;8.80;99.90;;;;;;4990727;28;20509;-69
2022/11/17 03:46:48;;;;;;;1999.90;999.90;;;8.80;99.90;;;;;;4990317;28;20451;-71
2022/11/17 03:49:22;;;;;;;1999.90;999.90;;;8.80;99.90;;;;;;4990674;28;20450;-68
2022/11/17 03:51:49;;;;;;;1999.90;999.90;;;8.90;99.90;;;;;;4989847;28;20483;-68
2022/11/17 03:54:17;;;;;;;1999.90;999.90;;;8.90;99.90;;;;;;4990572;28;20474;-70
2022/11/17 03:56:50;;;;;;;1999.90;999.90;;;9.00;99.90;;;;;;4990292;28;20910;-68
2022/11/17 03:59:24;;;;;;;1999.90;999.90;;;9.00;99.90;;;;;;4990847;28;20461;-69
2022/11/17 04:01:51;;;;;;;1999.90;999.90;;;9.00;99.90;;;;;;4989973;28;20956;-68
2022/11/17 04:04:21;;;;;;;1999.90;999.90;;;9.00;99.90;;;;;;4990191;28;20477;-70
2022/11/17 04:06:48;;;;;;;1999.90;999.90;;;9.10;99.90;;;;;;4990498;28;20447;-68
2022/11/17 04:09:15;;;;;;;1999.90;999.90;;;9.10;99.90;;;;;;4990168;28;20458;-69
2022/11/17 04:17:12;;;;;;;1999.90;999.90;;;9.20;99.90;;;;;;4990357;28;20434;-69
2022/11/17 04:19:39;;;;;;;1999.90;999.90;;;9.20;99.90;;;;;;4990040;28;20463;-70
2022/11/17 04:22:05;;;;;;;1999.90;999.90;;;9.30;99.90;;;;;;4989944;28;20443;-68
2022/11/17 04:24:32;;;;;;;1999.90;999.90;;;9.30;99.90;;;;;;4990204;28;20482;-69
2022/11/17 04:29:44;;;;;;;1999.90;999.90;;;9.30;99.90;;;;;;4990307;28;20426;-70
2022/11/17 04:32:11;;;;;;;1999.90;999.90;;;9.30;99.90;;;;;;4989255;28;21000;-69
2022/11/17 04:34:41;;;;;;;1999.90;999.90;;;9.30;99.90;;;;;;4990357;28;20467;-69
2022/11/17 04:37:16;;;;;;;1999.90;999.90;;;9.30;99.90;;;;;;4989837;28;20455;-70
2022/11/17 04:39:43;;;;;;;1999.90;999.90;;;9.30;99.90;;;;;;4990138;28;20456;-68
2022/11/17 04:42:09;;;;;;;1999.90;999.90;;;9.40;99.90;;;;;;4989215;28;21094;-69
2022/11/17 04:44:36;;;;;;;1999.90;999.90;;;9.40;99.90;;;;;;4990194;28;20465;-69
2022/11/17 04:47:05;;;;;;;1999.90;999.90;;;9.50;99.90;;;;;;4989954;28;20460;-69
2022/11/17 04:49:32;;;;;;;1999.90;999.90;;;9.40;99.90;;;;;;4989949;28;20465;-68
2022/11/17 04:51:59;;;;;;;1999.90;999.90;;;9.50;99.90;;;;;;4989624;28;20984;-71
2022/11/17 04:54:26;;;;;;;1999.90;999.90;;;9.50;99.90;;;;;;4989560;28;20475;-68
2022/11/17 04:56:54;;;;;;;1999.90;999.90;;;9.50;99.90;;;;;;4991694;28;20529;-68
2022/11/17 04:59:21;;;;;;;1999.90;999.90;;;9.50;99.90;;;;;;4993435;28;20450;-70
2022/11/17 05:01:48;;;;;;;1999.90;999.90;;;9.50;99.90;;;;;;4993534;28;20509;-69
2022/11/17 05:04:54;;;;;;;1999.90;999.90;;;9.40;99.90;;;;;;4993147;28;21130;-69
2022/11/17 05:07:06;;;;;;;1999.90;999.90;;;9.50;99.90;;;;;;4993489;28;20581;-68
2022/11/17 05:09:33;;;;;;;1999.90;999.90;;;9.50;99.90;;;;;;4993327;28;20454;-67
2022/11/17 05:14:46;;;;;;;1999.90;999.90;;;9.50;99.90;;;;;;4993362;28;20446;-69
2022/11/17 05:17:11;;;;;;;1999.90;999.90;;;9.50;99.90;;;;;;4992792;28;20581;-68
2022/11/17 05:19:41;;;;;;;1999.90;999.90;;;9.50;99.90;;;;;;4993272;28;20443;-69
2022/11/17 05:24:51;;;;;;;1999.90;999.90;;;9.40;99.90;;;;;;4993051;28;20547;-67
2022/11/17 05:27:18;;;;;;;1999.90;999.90;;;9.40;99.90;;;;;;4992952;28;20443;-69
2022/11/17 05:29:44;;;;;;;1999.90;999.90;;;9.40;99.90;;;;;;4993200;28;20454;-69
2022/11/17 05:32:12;;;;;;;1999.90;999.90;;;9.30;99.90;;;;;;4992526;28;20489;-68
2022/11/17 05:34:40;;;;;;;1999.90;999.90;;;9.30;99.90;;;;;;4992983;28;20469;-70
2022/11/17 05:37:07;;;;;;;1999.90;999.90;;;9.30;99.90;;;;;;4993296;28;20451;-70
2022/11/17 05:39:34;;;;;;;1999.90;999.90;;;9.30;99.90;;;;;;4992960;28;20625;-68
2022/11/17 05:42:01;;;;;;;1999.90;999.90;;;9.30;99.90;;;;;;4993383;28;20953;-68
2022/11/17 05:44:28;;;;;;;1999.90;999.90;;;9.30;99.90;;;;;;4993115;28;20837;-68
2022/11/17 05:46:54;;;;;;;1999.90;999.90;;;9.40;99.90;;;;;;4993270;28;20447;-68
2022/11/17 05:49:21;;;;;;;1999.90;999.90;;;9.40;99.90;;;;;;4993148;28;20549;-69
2022/11/17 05:51:49;;;;;;;1999.90;999.90;;;9.40;99.90;;;;;;4992689;28;20482;-69
2022/11/17 05:54:16;;;;;;;1999.90;999.90;;;9.40;99.90;;;;;;4993096;28;20486;-68
2022/11/17 05:56:46;;;;;;;1999.90;999.90;;;9.50;99.90;;;;;;4992281;28;20451;-71
2022/11/17 05:59:23;;;;;;;1999.90;999.90;;;9.50;99.90;;;;;;4992790;28;20453;-71
2022/11/17 06:01:55;;;;;;;1999.90;999.90;;;9.50;99.90;;;;;;4991347;28;20452;-71
2022/11/17 06:04:22;;;;;;;1999.90;999.90;;;9.50;99.90;;;;;;4987552;28;20585;-71
2022/11/17 06:06:50;;;;;;;1999.90;999.90;;;9.60;99.90;;;;;;4991824;28;20538;-69
2022/11/17 06:09:17;;;;;;;1999.90;999.90;;;9.60;99.90;;;;;;4991176;28;20443;-70
2022/11/17 06:11:44;;;;;;;1999.90;999.90;;;9.60;99.90;;;;;;4992017;28;20450;-69
2022/11/17 06:14:11;;;;;;;1999.90;999.90;;;9.50;99.90;;;;;;4991511;28;20483;-69
2022/11/17 06:16:42;;;;;;;1999.90;999.90;;;9.60;99.90;;;;;;4992236;28;21143;-70
2022/11/17 06:19:13;;;;;;;1999.90;999.90;;;9.60;99.90;;;;;;4991179;28;20451;-70
2022/11/17 06:21:40;;;;;;;1999.90;999.90;;;9.70;99.90;;;;;;4992130;28;20447;-70
2022/11/17 06:24:09;;;;;;;1999.90;999.90;;;9.70;99.90;;;;;;4990457;28;21314;-70
2022/11/17 06:26:36;;;;;;;1999.90;999.90;;;9.70;99.90;;;;;;4987612;28;20583;-70
2022/11/17 06:29:04;;;;;;;1999.90;999.90;;;9.80;99.90;;;;;;4984988;28;20458;-71
2022/11/17 06:31:31;;;;;;;1999.90;999.90;;;9.80;99.90;;;;;;4982231;28;20517;-70
2022/11/17 06:34:01;;;;;;;1999.90;999.90;;;9.80;99.90;;;;;;4986624;28;20602;-69
2022/11/17 06:36:28;;;;;;;1999.90;999.90;;;9.70;99.90;;;;;;4991364;28;20454;-69
2022/11/17 06:38:54;;;;;;;1999.90;999.90;;;9.70;99.90;;;;;;4991554;28;20450;-70
2022/11/17 06:41:22;;;;;;;1999.90;999.90;;;9.80;99.90;;;;;;4988817;28;20450;-71
2022/11/17 06:43:49;;;;;;;1999.90;999.90;;;9.80;99.90;;;;;;4991715;28;20455;-71
2022/11/17 06:46:17;;;;;;;1999.90;999.90;;;9.70;99.90;;;;;;4991405;28;20446;-70
2022/11/17 06:48:44;;;;;;;1999.90;999.90;;;9.60;99.90;;;;;;4991687;28;20451;-67
2022/11/17 06:51:11;;;;;;;1999.90;999.90;;;9.70;99.90;;;;;;4991178;28;20451;-68
2022/11/17 06:53:38;;;;;;;1999.90;999.90;;;9.70;99.90;;;;;;4990989;28;20486;-70
2022/11/17 06:56:08;;;;;;;1999.90;999.90;;;9.70;99.90;;;;;;4991764;28;20866;-72
2022/11/17 06:58:38;;;;;;;1999.90;999.90;;;9.80;99.90;;;;;;4991328;28;20447;-72
2022/11/17 07:01:06;;;;;;;1999.90;999.90;;;9.90;99.90;;;;;;4991311;28;20455;-69
2022/11/17 07:03:35;;;;;;;1999.90;999.90;;;10.00;99.90;;;;;;4989165;28;20465;-70
2022/11/17 07:06:03;;;;;;;1999.90;999.90;;;10.00;99.90;;;;;;4991300;28;20517;-70
2022/11/17 07:08:30;;;;;;;1999.90;999.90;;;10.10;99.90;;;;;;4991025;28;20457;-70
2022/11/17 07:11:01;;;;;;;1999.90;999.90;;;10.10;99.90;;;;;;4989940;28;20461;-70
2022/11/17 07:13:28;;;;;;;1999.90;999.90;;;10.10;99.90;;;;;;4990395;28;20563;-71
2022/11/17 07:16:03;;;;;;;1999.90;999.90;;;10.10;99.90;;;;;;4990856;28;20447;-69
2022/11/17 07:18:30;;;;;;;1999.90;999.90;;;10.20;99.90;;;;;;4991415;28;20450;-69
2022/11/17 07:21:00;;;;;;;1999.90;999.90;;;10.30;99.90;;;;;;4990489;28;20450;-69
2022/11/17 07:23:27;;;;;;;1999.90;999.90;;;10.30;99.90;;;;;;4990929;28;20848;-70
2022/11/17 07:25:54;;;;;;;1999.90;999.90;;;10.30;99.90;;;;;;4990572;28;20473;-70
2022/11/17 07:28:20;;;;;;;1999.90;999.90;;;10.40;99.90;;;;;;4990959;28;20442;-70
2022/11/17 07:30:48;;;;;;;1999.90;999.90;;;10.40;99.90;;;;;;4990243;28;20451;-70
2022/11/17 07:33:16;;;;;;;1999.90;999.90;;;10.40;99.90;;;;;;4990769;28;20475;-69
2022/11/17 07:35:43;;;;;;;1999.90;999.90;;;10.50;99.90;;;;;;4990368;28;20942;-71
2022/11/17 07:38:10;;;;;;;1999.90;999.90;;;10.60;99.90;;;;;;4990198;28;20503;-69
2022/11/17 07:40:36;;;;;;;1999.90;999.90;;;10.50;99.90;;;;;;4990386;28;20446;-67
2022/11/17 07:43:03;;;;;;;1999.90;999.90;;;10.60;99.90;;;;;;4989601;28;20533;-69
2022/11/17 07:45:30;;;;;;;1999.90;999.90;;;10.70;99.90;;;;;;4990853;28;20443;-70
2022/11/17 07:47:59;;;;;;;1999.90;999.90;;;10.80;99.90;;;;;;4990460;28;20451;-69
2022/11/17 07:50:27;;;;;;;1999.90;999.90;;;10.80;99.90;;;;;;4990927;28;20449;-69
2022/11/17 07:52:55;;;;;;;1999.90;999.90;;;10.90;99.90;;;;;;4990029;28;21004;-70
2022/11/17 07:55:23;;;;;;;1999.90;999.90;;;10.90;99.90;;;;;;4990231;28;21042;-70
2022/11/17 07:57:55;;;;;;;1999.90;999.90;;;10.90;99.90;;;;;;4990260;28;20454;-70
2022/11/17 08:00:22;;;;;;;1999.90;999.90;;;11.00;99.90;;;;;;4990506;28;20451;-70
2022/11/17 08:02:53;;;;;;;1999.90;999.90;;;11.00;99.90;;;;;;4988622;28;20453;-72
2022/11/17 08:05:20;;;;;;;1999.90;999.90;;;11.20;99.90;;;;;;4987464;28;20472;-70
2022/11/17 08:07:54;;;;;;;1999.90;999.90;;;11.30;99.90;;;;;;4990200;28;20607;-71
2022/11/17 08:10:21;;;;;;;1999.90;999.90;;;11.40;99.90;;;;;;4988478;28;20443;-71
2022/11/17 08:12:51;;;;;;;1999.90;999.90;;;11.40;99.90;;;;;;4990114;28;20455;-70
2022/11/17 08:15:18;;;;;;;1999.90;999.90;;;11.40;99.90;;;;;;4990906;28;20513;-70
2022/11/17 08:17:45;;;;;;;1999.90;999.90;;;11.60;99.90;;;;;;4990067;28;20451;-67
2022/11/17 08:20:12;;;;;;;1999.90;999.90;;;11.60;99.90;;;;;;4990646;28;20460;-71
2022/11/17 08:22:39;;;;;;;1999.90;999.90;;;11.70;99.90;;;;;;4989595;28;20454;-70
2022/11/17 08:25:08;;;;;;;1999.90;999.90;;;11.80;99.90;;;;;;4985835;28;20485;-71
2022/11/17 08:27:35;;;;;;;1999.90;999.90;;;11.90;99.90;;;;;;4989271;28;20522;-70
2022/11/17 08:30:02;;;;;;;1999.90;999.90;;;12.00;99.90;;;;;;4990476;28;20731;-71
2022/11/17 08:32:29;;;;;;;1999.90;999.90;;;12.10;99.90;;;;;;4994428;28;20485;-69
2022/11/17 08:34:56;;;;;;;1999.90;999.90;;;12.10;99.90;;;;;;4993725;28;20495;-72
2022/11/17 08:37:22;;;;;;;1999.90;999.90;;;12.20;99.90;;;;;;4994074;28;20949;-69
2022/11/17 08:39:49;;;;;;;1999.90;999.90;;;12.20;99.90;;;;;;4993870;28;20960;-68
2022/11/17 08:42:17;;;;;;;1999.90;999.90;;;12.10;99.90;;;;;;4993539;28;20454;-72
2022/11/17 08:44:44;;;;;;;1999.90;999.90;;;12.20;99.90;;;;;;4993256;28;20465;-69
2022/11/17 08:47:11;;;;;;;1999.90;999.90;;;12.10;99.90;;;;;;4993652;28;20522;-69
2022/11/17 08:49:37;;;;;;;1999.90;999.90;;;12.20;99.90;;;;;;4993753;28;20447;-67
2022/11/17 08:52:05;;;;;;;1999.90;999.90;;;12.20;99.90;;;;;;4992899;28;20447;-68
2022/11/17 08:54:32;;;;;;;1999.90;999.90;;;12.10;99.90;;;;;;4993321;28;20505;-67
2022/11/17 08:56:59;;;;;;;1999.90;999.90;;;12.10;99.90;;;;;;4993103;28;20445;-67
2022/11/17 08:59:27;;;;;;;1999.90;999.90;;;12.00;99.90;;;;;;4995546;28;20443;-67
2022/11/17 09:01:54;;;;;;;1999.90;999.90;;;12.00;99.90;;;;;;4992454;28;20450;-67
2022/11/17 09:04:20;;;;;;;1999.90;999.90;;;12.00;99.90;;;;;;4993075;28;20462;-69
2022/11/17 09:06:47;;;;;;;1999.90;999.90;;;11.90;99.90;;;;;;4993841;28;20451;-67
2022/11/17 09:09:14;;;;;;;1999.90;999.90;;;11.90;99.90;;;;;;4993329;28;20450;-68
2022/11/17 09:11:41;;;;;;;1999.90;999.90;;;12.00;99.90;;;;;;4993156;28;20976;-69
2022/11/17 09:14:08;;;;;;;1999.90;999.90;;;12.10;99.90;;;;;;4992843;28;20494;-69
2022/11/17 09:16:36;;;;;;;1999.90;999.90;;;12.20;99.90;;;;;;4993545;28;20458;-67
2022/11/17 09:19:03;;;;;;;1999.90;999.90;;;12.40;99.90;;;;;;4983677;28;20949;-68
2022/11/17 09:21:31;;;;;;;1999.90;999.90;;;12.50;99.90;;;;;;4992402;28;20438;-69
2022/11/17 09:23:58;;;;;;;1999.90;999.90;;;12.60;99.90;;;;;;4991813;28;20466;-67
2022/11/17 09:26:25;;;;;;;1999.90;999.90;;;12.70;99.90;;;;;;4992097;28;20461;-67
2022/11/17 09:28:52;;;;;;;1999.90;999.90;;;12.80;99.90;;;;;;4992378;28;21337;-67
2022/11/17 09:31:21;;;;;;;1999.90;999.90;;;12.90;99.90;;;;;;4991533;28;20446;-67
2022/11/17 09:33:49;;;;;;;1999.90;999.90;;;13.10;99.90;;;;;;4991591;28;20573;-68
2022/11/17 09:36:17;;;;;;;1999.90;999.90;;;13.10;99.90;;;;;;4991937;28;20451;-68
2022/11/17 09:38:44;;;;;;;1999.90;999.90;;;13.10;99.90;;;;;;4992142;28;20458;-68
2022/11/17 09:41:26;;;;;;;1999.90;999.90;;;13.10;99.90;;;;;;4992121;28;20449;-68
2022/11/17 09:44:02;;;;;;;1999.90;999.90;;;13.20;99.90;;;;;;4990848;28;20469;-68
2022/11/17 09:46:37;;;;;;;1999.90;999.90;;;13.20;99.90;;;;;;4991957;28;20885;-68
2022/11/17 09:49:13;;;;;;;1999.90;999.90;;;13.20;99.90;;;;;;4991749;28;20442;-70
2022/11/17 09:51:44;;;;;;;1999.90;999.90;;;13.20;99.90;;;;;;4991778;28;20960;-68
2022/11/17 09:54:20;;;;;;;1999.90;999.90;;;13.30;99.90;;;;;;4990842;28;20490;-68
2022/11/17 09:56:47;;;;;;;1999.90;999.90;;;13.20;99.90;;;;;;4992127;28;20450;-68
2022/11/17 09:59:18;;;;;;;1999.90;999.90;;;13.20;99.90;;;;;;4991992;28;20443;-69
2022/11/17 10:01:45;;;;;;;1999.90;999.90;;;13.30;99.90;;;;;;4991138;28;20453;-68
2022/11/17 10:04:16;;;;;;;1999.90;999.90;;;13.30;99.90;;;;;;4991434;28;21012;-68
2022/11/17 10:06:45;;;;;;;1999.90;999.90;;;13.30;99.90;;;;;;4991077;28;20512;-70
2022/11/17 10:09:18;;;;;;;1999.90;999.90;;;13.30;99.90;;;;;;4991720;28;20443;-70
2022/11/17 10:11:46;;;;;;;1999.90;999.90;;;13.30;99.90;;;;;;4987485;28;20458;-69
2022/11/17 10:14:15;;;;;;;1999.90;999.90;;;13.40;99.90;;;;;;4990276;28;20490;-70
2022/11/17 10:16:44;;;;;;;1999.90;999.90;;;13.50;99.90;;;;;;4990947;28;20458;-70
2022/11/17 10:19:18;;;;;;;1999.90;999.90;;;13.70;99.90;;;;;;4990137;28;20833;-69
2022/11/17 10:21:47;;;;;;;1999.90;999.90;;;14.30;99.90;;;;;;4989148;28;20447;-70
2022/11/17 10:24:33;;;;;;;1999.90;999.90;;;14.80;99.90;;;;;;4991330;28;20469;-70
2022/11/17 10:27:02;;;;;;;1999.90;999.90;;;14.90;99.90;;;;;;4989688;28;20909;-68
2022/11/17 10:29:29;;;;;;;1999.90;999.90;;;15.30;99.90;;;;;;4991214;28;20446;-69
2022/11/17 10:31:56;;;;;;;1999.90;999.90;;;16.00;99.90;;;;;;4990447;28;20457;-69
2022/11/17 10:34:33;;;;;;;1999.90;999.90;;;16.10;99.90;;;;;;4991036;28;20545;-71
2022/11/17 10:37:05;;;;;;;1999.90;999.90;;;16.20;99.90;;;;;;4990798;28;20822;-68
2022/11/17 10:39:37;;;;;;;1999.90;999.90;;;16.10;99.90;;;;;;4991281;28;20443;-67
2022/11/17 10:42:22;;;;;;;1999.90;999.90;;;15.90;99.90;;;;;;4990399;28;20443;-68
2022/11/17 10:44:52;;;;;;;1999.90;999.90;;;15.50;99.90;;;;;;4990972;28;20469;-68
2022/11/17 10:47:29;;;;;;;1999.90;999.90;;;15.30;99.90;;;;;;4991186;28;20453;-68
2022/11/17 10:50:14;;;;;;;1999.90;999.90;;;15.00;99.90;;;;;;4991139;28;20447;-69
2022/11/17 10:52:41;;;;;;;1999.90;999.90;;;14.60;99.90;;;;;;4989595;28;20458;-68
2022/11/17 10:55:19;;;;;;;1999.90;999.90;;;14.40;99.90;;;;;;4987735;28;20489;-68
2022/11/17 10:57:49;;;;;;;1999.90;999.90;;;14.20;99.90;;;;;;4987349;28;20447;-70
2022/11/17 11:00:29;;;;;;;1999.90;999.90;;;14.30;99.90;;;;;;4989358;28;20443;-69
2022/11/17 11:03:15;;;;;;;1999.90;999.90;;;14.40;99.90;;;;;;4987469;28;20454;-67
2022/11/17 11:05:59;;;;;;;1999.90;999.90;;;14.40;99.90;;;;;;4989285;28;20439;-68
2022/11/17 11:08:29;;;;;;;1999.90;999.90;;;14.50;99.90;;;;;;4988459;28;20461;-68
2022/11/17 11:10:59;;;;;;;1999.90;999.90;;;14.60;99.90;;;;;;4989946;28;20937;-69
2022/11/17 11:13:32;;;;;;;1999.90;999.90;;;14.70;99.90;;;;;;4986516;28;20459;-68
2022/11/17 11:15:59;;;;;;;1999.90;999.90;;;14.70;99.90;;;;;;4989672;28;20438;-69
2022/11/17 11:18:28;;;;;;;1999.90;999.90;;;14.80;99.90;;;;;;4989816;28;20454;-68
2022/11/17 11:21:06;;;;;;;1999.90;999.90;;;14.70;99.90;;;;;;4989736;28;20439;-68
2022/11/17 11:23:44;;;;;;;1999.90;999.90;;;14.60;99.90;;;;;;4989106;28;20530;-69
2022/11/17 11:26:30;;;;;;;1999.90;999.90;;;14.60;99.90;;;;;;4987369;28;20937;-68
2022/11/17 11:29:09;;;;;;;1999.90;999.90;;;14.60;99.90;;;;;;4988532;28;20449;-68
2022/11/17 11:31:49;;;;;;;1999.90;999.90;;;14.50;99.90;;;;;;4982170;28;20454;-68
2022/11/17 11:34:34;;;;;;;1999.90;999.90;;;14.40;99.90;;;;;;4985146;28;20856;-68
2022/11/17 11:37:08;;;;;;;1999.90;999.90;;;14.30;99.90;;;;;;4987981;28;20450;-68
2022/11/17 11:39:42;;;;;;;1999.90;999.90;;;14.20;99.90;;;;;;4990996;28;20450;-68
2022/11/17 11:42:23;;;;;;;1999.90;999.90;;;14.20;99.90;;;;;;4990286;28;20453;-69
2022/11/17 11:45:17;;;;;;;1999.90;999.90;;;14.40;99.90;;;;;;4990653;28;20521;-69
2022/11/17 11:47:59;;;;;;;1999.90;999.90;;;14.60;99.90;;;;;;4988725;28;20447;-69
2022/11/17 11:50:29;;;;;;;1999.90;999.90;;;14.80;99.90;;;;;;4990602;28;20877;-68
2022/11/17 11:53:03;;;;;;;1999.90;999.90;;;14.70;99.90;;;;;;4981718;28;20478;-68
2022/11/17 11:55:34;;;;;;;1999.90;999.90;;;14.70;99.90;;;;;;4989913;28;20477;-69
2022/11/17 11:58:06;;;;;;;1999.90;999.90;;;14.90;99.90;;;;;;4990709;28;20559;-69
2022/11/17 12:00:34;;;;;;;1999.90;999.90;;;15.20;99.90;;;;;;4987387;28;20446;-68
2022/11/17 12:03:10;;;;;;;1999.90;999.90;;;15.30;99.90;;;;;;4989946;28;20914;-69
2022/11/17 12:05:45;;;;;;;1999.90;999.90;;;15.20;99.90;;;;;;4989070;28;20443;-68
2022/11/17 12:08:18;;;;;;;1999.90;999.90;;;15.00;99.90;;;;;;4990118;28;20454;-70
2022/11/17 12:10:50;;;;;;;1999.90;999.90;;;14.80;99.90;;;;;;4990243;28;21126;-64
2022/11/17 12:13:20;;;;;;;1999.90;999.90;;;14.70;99.90;;;;;;4989834;28;20941;-69
2022/11/17 12:15:47;;;;;;;1999.90;999.90;;;14.60;99.90;;;;;;4990367;28;20557;-68
2022/11/17 12:18:30;;;;;;;1999.90;999.90;;;14.50;99.90;;;;;;4990164;28;20442;-69
2022/11/17 12:21:04;;;;;;;1999.90;999.90;;;14.30;99.90;;;;;;4990355;28;20460;-68
2022/11/17 12:23:47;;;;;;;1999.90;999.90;;;14.40;99.90;;;;;;4989788;28;20470;-68
2022/11/17 12:26:26;;;;;;;1999.90;999.90;;;14.30;99.90;;;;;;4990285;28;20812;-68
2022/11/17 12:29:25;;;;;;;1999.90;999.90;;;14.30;99.90;;;;;;4990281;28;20461;-68
2022/11/17 12:31:55;;;;;;;1999.90;999.90;;;14.30;99.90;;;;;;4990157;28;20455;-70
2022/11/17 12:34:25;;;;;;;1999.90;999.90;;;14.30;99.90;;;;;;4990330;28;20807;-68
2022/11/17 12:37:28;;;;;;;1999.90;999.90;;;14.40;99.90;;;;;;4989858;28;20529;-67
2022/11/17 12:39:59;;;;;;;1999.90;999.90;;;14.40;99.90;;;;;;4989962;28;20446;-68
2022/11/17 12:42:26;;;;;;;1999.90;999.90;;;14.40;99.90;;;;;;4989330;28;20466;-67
2022/11/17 12:45:11;;;;;;;1999.90;999.90;;;14.30;99.90;;;;;;4989188;28;20473;-68
2022/11/17 12:47:40;;;;;;;1999.90;999.90;;;14.30;99.90;;;;;;4984687;28;20818;-67